createdAt,value
2024-01-15T00:02:08.879Z,0.97
2024-01-15T00:04:42.119Z,0.99
2024-01-15T00:07:14.763Z,1.02
2024-01-15T00:09:47.192Z,1.06
2024-01-15T00:12:19.875Z,1.08
2024-01-15T00:14:52.568Z,1.10
2024-01-15T00:17:25.008Z,1.10
2024-01-15T00:19:57.596Z,1.10
2024-01-15T00:22:30.093Z,1.08
2024-01-15T00:25:02.468Z,1.07
2024-01-15T00:27:35.415Z,1.08
2024-01-15T00:30:09.613Z,1.07
2024-01-15T00:32:42.109Z,1.10
2024-01-15T00:35:14.690Z,1.10
2024-01-15T00:37:47.166Z,1.13
2024-01-15T00:40:19.536Z,1.13
2024-01-15T00:42:51.939Z,1.13
2024-01-15T00:45:25.014Z,1.11
2024-01-15T00:47:58.086Z,1.12
2024-01-15T00:50:30.964Z,1.09
2024-01-15T00:53:03.808Z,1.09
2024-01-15T00:55:37.571Z,1.04
2024-01-15T00:58:10.216Z,1.04
2024-01-15T01:00:42.773Z,1.03
2024-01-15T01:03:15.364Z,1.01
2024-01-15T01:05:47.948Z,0.99
2024-01-15T01:08:21.103Z,1.02
2024-01-15T01:10:53.615Z,1.01
2024-01-15T01:13:27.306Z,1.01
2024-01-15T01:15:59.794Z,0.98
2024-01-15T01:18:32.486Z,0.95
2024-01-15T01:21:05.147Z,0.95
2024-01-15T01:23:37.832Z,0.94
2024-01-15T01:26:10.138Z,0.93
2024-01-15T01:28:42.653Z,0.97
2024-01-15T01:31:15.038Z,0.99
2024-01-15T01:33:47.530Z,1.02
2024-01-15T01:36:20.308Z,1.04
2024-01-15T01:38:52.767Z,1.05
2024-01-15T01:41:25.535Z,1.06
2024-01-15T01:43:58.382Z,1.07
2024-01-15T01:46:31.667Z,1.06
2024-01-15T01:49:06.233Z,1.06
2024-01-15T01:51:40.763Z,1.02
2024-01-15T01:54:15.138Z,0.99
2024-01-15T01:56:47.628Z,0.97
2024-01-15T01:59:20.218Z,0.97
2024-01-15T02:01:53.019Z,0.97
2024-01-15T02:04:28.625Z,1.00
2024-01-15T02:07:02.858Z,0.98
2024-01-15T02:09:34.715Z,0.92
2024-01-15T02:12:07.689Z,0.91
2024-01-15T02:14:40.242Z,0.91
2024-01-15T02:17:12.695Z,0.90
2024-01-15T02:19:45.582Z,0.91
2024-01-15T02:22:18.105Z,0.90
2024-01-15T02:24:50.711Z,0.89
2024-01-15T02:27:24.269Z,0.90
2024-01-15T02:29:57.293Z,0.90
2024-01-15T02:32:29.684Z,0.89
2024-01-15T02:35:02.305Z,0.90
2024-01-15T02:37:35.608Z,0.94
2024-01-15T02:40:09.238Z,0.91
2024-01-15T02:42:41.924Z,0.92
2024-01-15T02:45:14.648Z,0.94
2024-01-15T02:47:47.901Z,0.96
2024-01-15T02:50:20.371Z,0.97
2024-01-15T02:52:52.823Z,0.96
2024-01-15T02:55:25.359Z,0.91
2024-01-15T02:57:57.796Z,0.87
2024-01-15T03:00:30.435Z,0.85
2024-01-15T03:03:03.032Z,0.83
2024-01-15T03:05:35.576Z,0.82
2024-01-15T03:08:08.212Z,0.83
2024-01-15T03:10:40.675Z,0.83
2024-01-15T03:13:14.302Z,0.85
2024-01-15T03:15:47.010Z,0.86
2024-01-15T03:18:19.557Z,0.87
2024-01-15T03:20:52.732Z,0.89
2024-01-15T03:23:25.379Z,0.91
2024-01-15T03:25:57.884Z,0.93
2024-01-15T03:28:31.698Z,0.95
2024-01-15T03:31:04.304Z,0.96
2024-01-15T03:33:38.004Z,0.94
2024-01-15T03:36:12.302Z,0.95
2024-01-15T03:38:44.048Z,0.94
2024-01-15T03:41:16.300Z,0.91
2024-01-15T03:43:48.734Z,0.86
2024-01-15T03:46:21.171Z,0.85
2024-01-15T03:48:53.673Z,0.81
2024-01-15T03:51:26.758Z,0.83
2024-01-15T03:53:59.097Z,0.80
2024-01-15T03:56:31.475Z,0.79
2024-01-15T03:59:04.214Z,0.77
2024-01-15T04:01:36.785Z,0.74
2024-01-15T04:04:10.071Z,0.73
2024-01-15T04:06:43.492Z,0.72
2024-01-15T04:09:16.401Z,0.69
2024-01-15T04:11:49.076Z,0.65
2024-01-15T04:14:21.481Z,0.61
2024-01-15T04:16:53.917Z,0.60
2024-01-15T04:19:27.259Z,0.54
2024-01-15T04:21:59.714Z,0.52
2024-01-15T04:24:34.319Z,0.49
2024-01-15T04:27:06.187Z,0.48
2024-01-15T04:29:42.770Z,0.47
2024-01-15T04:32:15.113Z,0.46
2024-01-15T04:34:48.594Z,0.47
2024-01-15T04:37:21.168Z,0.46
2024-01-15T04:39:56.449Z,0.49
2024-01-15T04:42:29.535Z,0.49
2024-01-15T04:45:02.042Z,0.49
2024-01-15T04:47:34.674Z,0.44
2024-01-15T04:50:07.900Z,0.42
2024-01-15T04:52:40.645Z,0.42
2024-01-15T04:55:13.050Z,0.42
2024-01-15T04:57:45.543Z,0.39
2024-01-15T05:00:18.138Z,0.34
2024-01-15T05:02:50.903Z,0.31
2024-01-15T05:05:23.643Z,0.29
2024-01-15T05:07:56.232Z,0.29
2024-01-15T05:10:28.934Z,0.28
2024-01-15T05:13:01.322Z,0.28
2024-01-15T05:15:34.356Z,0.29
2024-01-15T05:18:08.669Z,0.32
2024-01-15T05:20:41.604Z,0.32
2024-01-15T05:23:14.061Z,0.34
2024-01-15T05:25:46.508Z,0.35
2024-01-15T05:28:19.514Z,0.35
2024-01-15T05:30:52.551Z,0.33
2024-01-15T05:33:28.456Z,0.32
2024-01-15T05:36:01.040Z,0.26
2024-01-15T05:38:33.636Z,0.27
2024-01-15T05:41:07.025Z,0.25
2024-01-15T05:43:40.538Z,0.24
2024-01-15T05:46:12.835Z,0.25
2024-01-15T05:48:46.237Z,0.26
2024-01-15T05:51:18.763Z,0.26
2024-01-15T05:53:52.781Z,0.26
2024-01-15T05:56:25.660Z,0.28
2024-01-15T05:58:58.209Z,0.32
2024-01-15T06:01:30.714Z,0.35
2024-01-15T06:04:03.567Z,0.38
2024-01-15T06:06:36.129Z,0.41
2024-01-15T06:09:08.689Z,0.46
2024-01-15T06:11:41.710Z,0.49
2024-01-15T06:14:14.587Z,0.54
2024-01-15T06:16:47.153Z,0.55
2024-01-15T06:19:20.352Z,0.57
2024-01-15T06:21:53.047Z,0.56
2024-01-15T06:24:25.572Z,0.58
2024-01-15T06:26:58.156Z,0.61
2024-01-15T06:29:31.076Z,0.63
2024-01-15T06:32:04.546Z,0.67
2024-01-15T06:34:37.295Z,0.69
2024-01-15T06:37:10.049Z,0.71
2024-01-15T06:39:42.584Z,0.72
2024-01-15T06:42:15.063Z,0.72
2024-01-15T06:44:48.558Z,0.76
2024-01-15T06:47:21.255Z,0.80
2024-01-15T06:49:54.044Z,0.82
2024-01-15T06:52:26.585Z,0.83
2024-01-15T06:54:59.027Z,0.81
2024-01-15T06:57:31.604Z,0.80
2024-01-15T07:00:05.664Z,0.83
2024-01-15T07:02:38.987Z,0.85
2024-01-15T07:05:12.222Z,0.90
2024-01-15T07:07:44.805Z,0.95
2024-01-15T07:10:18.578Z,0.97
2024-01-15T07:12:51.208Z,0.95
2024-01-15T07:15:23.984Z,0.95
2024-01-15T07:17:56.745Z,0.99
2024-01-15T07:20:29.208Z,0.98
2024-01-15T07:23:03.625Z,1.03
2024-01-15T07:25:36.001Z,1.05
2024-01-15T07:28:08.789Z,1.06
2024-01-15T07:30:41.559Z,1.09
2024-01-15T07:33:14.414Z,1.12
2024-01-15T07:35:47.024Z,1.15
2024-01-15T07:38:20.292Z,1.17
2024-01-15T07:40:53.784Z,1.17
2024-01-15T07:43:26.421Z,1.16
2024-01-15T07:46:00.067Z,1.24
2024-01-15T07:48:33.824Z,1.29
2024-01-15T07:51:06.539Z,1.34
2024-01-15T07:53:39.255Z,1.34
2024-01-15T07:56:11.771Z,1.36
2024-01-15T07:58:46.050Z,1.40
2024-01-15T08:01:18.876Z,1.44
2024-01-15T08:03:53.658Z,1.48
2024-01-15T08:06:26.264Z,1.52
2024-01-15T08:09:01.013Z,1.54
2024-01-15T08:11:34.004Z,1.61
2024-01-15T08:14:08.081Z,1.61
2024-01-15T08:16:41.675Z,1.65
2024-01-15T08:19:15.694Z,1.69
2024-01-15T08:21:49.433Z,1.71
2024-01-15T08:24:21.907Z,1.72
2024-01-15T08:26:55.679Z,1.72
2024-01-15T08:29:28.800Z,1.72
2024-01-15T08:32:02.377Z,1.71
2024-01-15T08:34:35.313Z,1.75
2024-01-15T08:37:08.236Z,1.80
2024-01-15T08:39:40.839Z,1.83
2024-01-15T08:42:13.529Z,1.87
2024-01-15T08:44:46.991Z,1.86
2024-01-15T08:47:20.190Z,1.85
2024-01-15T08:49:52.776Z,1.89
2024-01-15T08:52:25.828Z,1.91
2024-01-15T08:55:02.162Z,1.89
2024-01-15T08:57:35.956Z,1.89
2024-01-15T09:00:10.410Z,1.87
2024-01-15T09:02:43.766Z,1.84
2024-01-15T09:05:16.445Z,1.88
2024-01-15T09:07:49.235Z,1.89
2024-01-15T09:10:22.755Z,1.85
2024-01-15T09:12:55.595Z,1.86
2024-01-15T09:15:29.138Z,1.85
2024-01-15T09:18:06.085Z,1.89
2024-01-15T09:20:39.655Z,1.89
2024-01-15T09:23:11.765Z,1.88
2024-01-15T09:25:44.018Z,1.87
2024-01-15T09:28:18.197Z,1.95
2024-01-15T09:30:51.831Z,1.99
2024-01-15T09:33:24.968Z,2.08
2024-01-15T09:35:57.893Z,2.15
2024-01-15T09:38:30.521Z,2.16
2024-01-15T09:41:03.134Z,2.20
2024-01-15T09:43:36.625Z,2.23
2024-01-15T09:46:13.619Z,2.29
2024-01-15T09:48:46.336Z,2.32
2024-01-15T09:51:19.145Z,2.39
2024-01-15T09:53:52.953Z,2.41
2024-01-15T09:56:25.757Z,2.43
2024-01-15T09:58:59.000Z,2.39
2024-01-15T10:01:31.748Z,2.40
2024-01-15T10:04:05.898Z,2.46
2024-01-15T10:06:44.415Z,2.48
2024-01-15T10:09:17.373Z,2.51
2024-01-15T10:11:50.167Z,2.52
2024-01-15T10:14:22.759Z,2.53
2024-01-15T10:16:56.966Z,2.48
2024-01-15T10:19:30.616Z,2.43
2024-01-15T10:22:05.087Z,2.44
2024-01-15T10:24:40.150Z,2.47
2024-01-15T10:27:14.048Z,2.49
2024-01-15T10:29:47.516Z,2.50
2024-01-15T10:32:20.112Z,2.54
2024-01-15T10:34:54.999Z,2.54
2024-01-15T10:37:29.824Z,2.51
2024-01-15T10:40:07.320Z,2.46
2024-01-15T10:42:40.197Z,2.46
2024-01-15T10:45:12.922Z,2.46
2024-01-15T10:47:45.775Z,2.50
2024-01-15T10:50:18.466Z,2.49
2024-01-15T10:52:52.765Z,2.48
2024-01-15T10:55:26.417Z,2.48
2024-01-15T10:57:59.880Z,2.47
2024-01-15T11:00:33.280Z,2.48
2024-01-15T11:03:09.280Z,2.48
2024-01-15T11:05:45.133Z,2.46
2024-01-15T11:08:20.373Z,2.42
2024-01-15T11:10:55.923Z,2.40
2024-01-15T11:13:42.101Z,2.32
2024-01-15T11:16:17.665Z,2.33
2024-01-15T11:19:04.980Z,2.31
2024-01-15T11:21:39.668Z,2.29
2024-01-15T11:24:12.540Z,2.21
2024-01-15T11:26:48.797Z,2.16
2024-01-15T11:29:36.310Z,2.15
2024-01-15T11:32:09.973Z,2.16
2024-01-15T11:35:04.252Z,2.15
2024-01-15T11:37:59.057Z,2.15
2024-01-15T11:40:40.108Z,2.10
2024-01-15T11:43:14.537Z,2.10
2024-01-15T11:45:48.294Z,2.08
2024-01-15T11:48:23.063Z,2.06
2024-01-15T11:50:55.905Z,2.03
2024-01-15T11:53:46.368Z,2.05
2024-01-15T11:56:19.366Z,2.08
2024-01-15T11:58:52.681Z,2.14
2024-01-15T12:01:25.868Z,2.14
2024-01-15T12:03:59.806Z,2.16
2024-01-15T12:06:32.564Z,2.12
2024-01-15T12:09:11.513Z,2.08
2024-01-15T12:11:47.195Z,2.06
2024-01-15T12:14:19.767Z,2.03
2024-01-15T12:16:52.485Z,2.00
2024-01-15T12:19:24.942Z,1.99
2024-01-15T12:21:58.093Z,1.94
2024-01-15T12:24:30.691Z,1.91
2024-01-15T12:27:04.125Z,1.89
2024-01-15T12:29:36.724Z,1.85
2024-01-15T12:32:09.384Z,1.83
2024-01-15T12:34:42.600Z,1.82
2024-01-15T12:37:15.162Z,1.82
2024-01-15T12:39:47.674Z,1.87
2024-01-15T12:42:20.604Z,1.90
2024-01-15T12:44:53.178Z,1.97
2024-01-15T12:47:25.637Z,2.02
2024-01-15T12:50:09.750Z,2.10
2024-01-15T12:52:36.018Z,2.13
2024-01-15T12:55:10.100Z,2.13
2024-01-15T12:57:42.912Z,2.09
2024-01-15T13:00:16.917Z,2.07
2024-01-15T13:02:51.441Z,2.05
2024-01-15T13:05:25.478Z,2.05
2024-01-15T13:07:58.408Z,2.02
2024-01-15T13:10:31.648Z,1.99
2024-01-15T13:13:04.438Z,1.95
2024-01-15T13:15:37.696Z,1.92
2024-01-15T13:18:11.630Z,1.92
2024-01-15T13:20:44.650Z,1.94
2024-01-15T13:23:17.813Z,1.91
2024-01-15T13:25:51.310Z,1.90
2024-01-15T13:28:25.803Z,1.93
2024-01-15T13:30:58.856Z,1.92
2024-01-15T13:33:32.038Z,1.90
2024-01-15T13:36:05.037Z,1.87
2024-01-15T13:38:42.839Z,1.83
2024-01-15T13:41:16.546Z,1.81
2024-01-15T13:43:51.185Z,1.76
2024-01-15T13:46:25.922Z,1.72
2024-01-15T13:48:58.604Z,1.70
2024-01-15T13:51:31.361Z,1.64
2024-01-15T13:54:06.576Z,1.61
2024-01-15T13:56:40.862Z,1.52
2024-01-15T13:59:12.667Z,1.47
2024-01-15T14:01:45.676Z,1.39
2024-01-15T14:04:18.528Z,1.34
2024-01-15T14:06:51.155Z,1.30
2024-01-15T14:09:24.232Z,1.26
2024-01-15T14:11:56.863Z,1.20
2024-01-15T14:14:30.310Z,1.14
2024-01-15T14:17:03.579Z,1.10
2024-01-15T14:19:37.167Z,1.05
2024-01-15T14:22:09.957Z,1.03
2024-01-15T14:24:42.562Z,0.98
2024-01-15T14:27:15.177Z,0.96
2024-01-15T14:29:47.889Z,0.91
2024-01-15T14:32:20.857Z,0.90
2024-01-15T14:34:53.522Z,0.88
2024-01-15T14:37:26.236Z,0.85
2024-01-15T14:39:59.045Z,0.84
2024-01-15T14:42:31.972Z,0.86
2024-01-15T14:45:07.918Z,0.85
2024-01-15T14:47:45.625Z,0.86
2024-01-15T14:50:18.473Z,0.90
2024-01-15T14:52:51.076Z,0.92
2024-01-15T14:55:24.674Z,0.93
2024-01-15T14:57:57.238Z,0.95
2024-01-15T15:00:29.892Z,0.94
2024-01-15T15:03:03.618Z,0.91
2024-01-15T15:05:37.055Z,0.91
2024-01-15T15:08:10.240Z,0.92
2024-01-15T15:10:43.507Z,0.93
2024-01-15T15:13:18.209Z,0.94
2024-01-15T15:15:50.276Z,0.97
2024-01-15T15:18:26.347Z,1.01
2024-01-15T15:20:59.602Z,1.01
2024-01-15T15:23:33.495Z,1.04
2024-01-15T15:26:06.809Z,1.03
2024-01-15T15:28:39.981Z,1.03
2024-01-15T15:31:13.370Z,1.03
2024-01-15T15:33:46.261Z,1.04
2024-01-15T15:36:20.447Z,1.06
2024-01-15T15:38:54.184Z,1.07
2024-01-15T15:41:27.308Z,1.07
2024-01-15T15:44:00.379Z,1.04
2024-01-15T15:46:33.886Z,1.05
2024-01-15T15:49:08.307Z,1.02
2024-01-15T15:51:42.074Z,0.99
2024-01-15T15:54:16.105Z,0.95
2024-01-15T15:56:50.435Z,0.92
2024-01-15T15:59:25.820Z,0.89
2024-01-15T16:02:02.562Z,0.86
2024-01-15T16:04:36.064Z,0.81
2024-01-15T16:07:11.323Z,0.78
2024-01-15T16:09:50.855Z,0.73
2024-01-15T16:12:27.086Z,0.69
2024-01-15T16:15:02.349Z,0.69
2024-01-15T16:23:16.380Z,0.67
2024-01-15T16:23:29.298Z,0.65
2024-01-15T16:23:43.677Z,0.63
2024-01-15T16:25:20.897Z,0.65
2024-01-15T16:27:54.345Z,0.60
2024-01-15T16:30:33.521Z,0.57
2024-01-15T16:33:02.619Z,0.55
2024-01-15T16:35:37.974Z,0.52
2024-01-15T16:38:11.247Z,0.51
2024-01-15T16:40:43.995Z,0.49
2024-01-15T16:43:19.093Z,0.47
2024-01-15T16:45:51.861Z,0.44
2024-01-15T16:48:24.689Z,0.44
2024-01-15T16:50:57.968Z,0.44
2024-01-15T16:53:30.992Z,0.43
2024-01-15T16:56:05.596Z,0.41
2024-01-15T16:58:39.321Z,0.39
2024-01-15T17:01:12.240Z,0.37
2024-01-15T17:03:45.253Z,0.34
2024-01-15T17:06:18.774Z,0.35
2024-01-15T17:08:51.972Z,0.36
2024-01-15T17:11:24.842Z,0.33
2024-01-15T17:13:57.700Z,0.29
2024-01-15T17:16:30.766Z,0.27
2024-01-15T17:19:12.660Z,0.25
2024-01-15T17:21:45.382Z,0.22
2024-01-15T17:24:18.302Z,0.18
2024-01-15T17:26:51.890Z,0.14
2024-01-15T17:29:25.493Z,0.11
2024-01-15T17:31:59.444Z,0.10
2024-01-15T17:34:32.289Z,0.08
2024-01-15T17:37:06.125Z,0.03
2024-01-15T17:39:40.503Z,0.02
2024-01-15T17:42:17.149Z,0.01
2024-01-15T17:44:52.616Z,0.02
2024-01-15T17:47:25.366Z,0.03
2024-01-15T17:49:58.357Z,0.04
2024-01-15T17:52:33.498Z,0.04
2024-01-15T17:55:06.792Z,0.03
2024-01-15T17:57:39.438Z,0.04
2024-01-15T18:00:15.478Z,0.05
2024-01-15T18:02:48.880Z,0.06
2024-01-15T18:05:21.904Z,0.06
2024-01-15T18:07:55.127Z,0.07
2024-01-15T18:10:29.053Z,0.07
2024-01-15T18:13:01.542Z,0.06
2024-01-15T18:15:34.286Z,0.09
2024-01-15T18:18:08.079Z,0.09
2024-01-15T18:20:40.961Z,0.10
2024-01-15T18:23:14.423Z,0.11
2024-01-15T18:25:47.316Z,0.11
2024-01-15T18:28:19.914Z,0.12
2024-01-15T18:30:53.189Z,0.12
2024-01-15T18:33:29.006Z,0.15
2024-01-15T18:36:04.686Z,0.17
2024-01-15T18:38:37.662Z,0.16
2024-01-15T18:41:10.927Z,0.20
2024-01-15T18:43:43.572Z,0.21
2024-01-15T18:46:16.495Z,0.19
2024-01-15T18:48:49.197Z,0.15
2024-01-15T18:51:28.545Z,0.12
2024-01-15T18:54:05.834Z,0.08
2024-01-15T18:56:45.809Z,0.04
2024-01-15T18:59:18.385Z,0.03
2024-01-15T19:01:51.347Z,0.03
2024-01-15T19:04:25.630Z,0.02
2024-01-15T19:07:02.438Z,0.03
2024-01-15T19:09:35.424Z,0.01
2024-01-15T19:12:08.089Z,0.00
2024-01-15T19:14:41.090Z,0.00
2024-01-15T19:17:15.566Z,-0.02
2024-01-15T19:19:50.664Z,-0.02
2024-01-15T19:22:26.439Z,-0.05
2024-01-15T19:25:00.694Z,-0.06
2024-01-15T19:27:33.616Z,-0.09
2024-01-15T19:30:07.713Z,-0.08
2024-01-15T19:32:42.425Z,-0.08
2024-01-15T19:35:16.022Z,-0.06
2024-01-15T19:37:49.369Z,-0.04
2024-01-15T19:40:23.077Z,-0.04
2024-01-15T19:42:55.521Z,-0.01
2024-01-15T19:45:28.092Z,0.00
2024-01-15T19:48:05.497Z,0.04
2024-01-15T19:50:40.163Z,0.12
2024-01-15T19:53:17.681Z,0.18
2024-01-15T19:55:50.902Z,0.22
2024-01-15T19:58:24.437Z,0.23
2024-01-15T20:01:02.746Z,0.23
2024-01-15T20:03:36.252Z,0.18
2024-01-15T20:06:11.021Z,0.16
2024-01-15T20:08:45.898Z,0.14
2024-01-15T20:13:51.922Z,0.16
2024-01-15T20:16:25.982Z,0.09
2024-01-15T20:18:59.882Z,0.08
2024-01-15T20:21:36.043Z,0.08
2024-01-15T20:24:09.253Z,0.07
2024-01-15T20:26:42.208Z,0.06
2024-01-15T20:29:15.530Z,0.05
2024-01-15T20:31:48.611Z,0.03
2024-01-15T20:34:21.930Z,0.00
2024-01-15T20:36:54.437Z,0.00
2024-01-15T20:39:27.913Z,-0.01
2024-01-15T20:42:01.391Z,-0.03
2024-01-15T20:44:34.116Z,-0.04
2024-01-15T20:47:06.918Z,-0.04
2024-01-15T20:49:42.593Z,-0.06
2024-01-15T20:52:15.143Z,-0.07
2024-01-15T20:54:49.060Z,-0.08
2024-01-15T20:57:21.537Z,-0.05
2024-01-15T20:59:53.996Z,-0.07
2024-01-15T21:02:27.712Z,-0.06
2024-01-15T21:05:00.452Z,-0.08
2024-01-15T21:07:33.443Z,-0.09
2024-01-15T21:10:06.450Z,-0.11
2024-01-15T21:12:40.055Z,-0.10
2024-01-15T21:15:12.708Z,-0.11
2024-01-15T21:17:48.403Z,-0.10
2024-01-15T21:20:20.610Z,-0.11
2024-01-15T21:22:54.289Z,-0.10
2024-01-15T21:25:26.797Z,-0.14
2024-01-15T21:28:00.400Z,-0.18
2024-01-15T21:30:34.590Z,-0.16
2024-01-15T21:33:06.821Z,-0.18
2024-01-15T21:35:39.481Z,-0.20
2024-01-15T21:38:12.430Z,-0.24
2024-01-15T21:40:44.899Z,-0.24
2024-01-15T21:43:17.376Z,-0.27
2024-01-15T21:45:50.149Z,-0.27
2024-01-15T21:48:23.601Z,-0.26
2024-01-15T21:50:56.770Z,-0.30
2024-01-15T21:53:29.180Z,-0.31
2024-01-15T21:56:01.904Z,-0.31
2024-01-15T21:58:35.583Z,-0.31
2024-01-15T22:01:10.151Z,-0.33
2024-01-15T22:03:42.783Z,-0.34
2024-01-15T22:06:16.120Z,-0.39
2024-01-15T22:08:50.028Z,-0.43
2024-01-15T22:11:22.796Z,-0.45
2024-01-15T22:13:55.450Z,-0.47
2024-01-15T22:16:28.123Z,-0.46
2024-01-15T22:19:02.842Z,-0.44
2024-01-15T22:21:35.011Z,-0.39
2024-01-15T22:24:16.828Z,-0.36
2024-01-15T22:26:50.207Z,-0.30
2024-01-15T22:29:22.861Z,-0.29
2024-01-15T22:31:55.733Z,-0.27
2024-01-15T22:34:29.358Z,-0.24
2024-01-15T22:37:02.767Z,-0.21
2024-01-15T22:39:36.038Z,-0.17
2024-01-15T22:42:10.218Z,-0.17
2024-01-15T22:44:42.910Z,-0.18
2024-01-15T22:47:16.021Z,-0.22
2024-01-15T22:49:48.459Z,-0.20
2024-01-15T22:52:20.850Z,-0.21
2024-01-15T22:54:55.731Z,-0.18
2024-01-15T22:57:28.839Z,-0.16
2024-01-15T23:00:01.551Z,-0.14
2024-01-15T23:02:34.903Z,-0.14
2024-01-15T23:05:07.507Z,-0.13
2024-01-15T23:07:39.989Z,-0.14
2024-01-15T23:10:14.496Z,-0.13
2024-01-15T23:12:48.070Z,-0.13
2024-01-15T23:15:23.861Z,-0.11
2024-01-15T23:17:57.889Z,-0.12
2024-01-15T23:20:30.563Z,-0.10
2024-01-15T23:23:03.277Z,-0.13
2024-01-15T23:25:37.515Z,-0.15
2024-01-15T23:28:11.459Z,-0.14
2024-01-15T23:30:43.835Z,-0.12
2024-01-15T23:33:16.298Z,-0.08
2024-01-15T23:35:49.473Z,-0.09
2024-01-15T23:38:21.918Z,-0.06
2024-01-15T23:40:54.478Z,-0.06
2024-01-15T23:43:27.681Z,-0.06
2024-01-15T23:46:09.995Z,-0.01
2024-01-15T23:48:36.125Z,-0.01
2024-01-15T23:51:08.642Z,-0.03
2024-01-15T23:53:41.574Z,-0.06
2024-01-15T23:56:15.129Z,-0.07
2024-01-15T23:58:47.657Z,-0.10
